Time;durP1;ratioP1;P1;durP2;ratioP2;P2;SDS_P1;SDS_P2;PMS_P1;PMS_P2;Temp;Humidity;BMP_temperature;BMP_pressure;BME280_temperature;BME280_humidity;BME280_pressure;Samples;Min_cycle;Max_cycle;Signal;HPM_P1;HPM_P2
2021/12/21 00:01:48;;;;;;;0.30;0.30;;;22.10;30.00;;;;;;5150135;27;20106;-64
2021/12/21 00:04:15;;;;;;;0.30;0.30;;;22.10;30.00;;;;;;5149681;27;20055;-64
2021/12/21 00:06:43;;;;;;;0.50;0.40;;;22.10;30.00;;;;;;5130946;27;20501;-64
2021/12/21 00:09:11;;;;;;;0.65;0.65;;;22.10;30.00;;;;;;5150168;27;20047;-64
2021/12/21 00:11:38;;;;;;;0.60;0.30;;;22.10;30.00;;;;;;5149480;27;20050;-64
2021/12/21 00:14:27;;;;;;;0.57;0.30;;;22.00;29.90;;;;;;5149454;27;20096;-64
2021/12/21 00:17:10;;;;;;;0.30;0.30;;;22.00;29.90;;;;;;5149496;27;20099;-64
2021/12/21 00:20:07;;;;;;;0.43;0.40;;;22.00;29.90;;;;;;5149366;27;20488;-64
2021/12/21 00:23:02;;;;;;;1.58;0.40;;;22.00;29.90;;;;;;5149498;27;20133;-64
2021/12/21 00:25:13;;;;;;;0.30;0.22;;;22.00;30.00;;;;;;5149358;27;20498;-64
2021/12/21 00:27:40;;;;;;;0.47;0.47;;;22.00;30.00;;;;;;5150194;27;20567;-65
2021/12/21 00:30:08;;;;;;;0.50;0.38;;;22.00;30.00;;;;;;5149313;27;20042;-64
2021/12/21 00:32:35;;;;;;;0.47;0.47;;;22.00;30.00;;;;;;5149517;27;20051;-64
2021/12/21 00:35:03;;;;;;;0.55;0.47;;;22.00;30.00;;;;;;5148912;27;20051;-64
2021/12/21 00:37:31;;;;;;;0.43;0.30;;;22.00;30.00;;;;;;5150201;27;20085;-64
2021/12/21 00:39:58;;;;;;;0.20;0.20;;;22.00;30.50;;;;;;5149694;27;20054;-64
2021/12/21 00:42:26;;;;;;;0.52;0.20;;;22.00;30.00;;;;;;5149816;27;20039;-64
2021/12/21 00:44:53;;;;;;;0.88;0.50;;;21.90;30.00;;;;;;5150018;27;20050;-64
2021/12/21 00:47:26;;;;;;;0.50;0.50;;;22.00;30.00;;;;;;5154538;27;20440;-64
2021/12/21 00:50:02;;;;;;;0.63;0.40;;;22.00;30.00;;;;;;5152873;27;20045;-64
2021/12/21 00:52:30;;;;;;;0.75;0.30;;;21.90;30.00;;;;;;5153552;27;20072;-64
2021/12/21 00:54:57;;;;;;;0.30;0.28;;;22.00;30.00;;;;;;5153320;27;20070;-65
2021/12/21 00:57:24;;;;;;;0.30;0.30;;;21.90;30.00;;;;;;5154617;27;20050;-64
2021/12/21 00:59:51;;;;;;;0.30;0.30;;;22.00;30.00;;;;;;5153147;27;20047;-64
2021/12/21 01:02:18;;;;;;;0.20;0.20;;;22.00;30.00;;;;;;5154020;27;20204;-64
2021/12/21 01:04:48;;;;;;;0.60;0.40;;;21.90;30.00;;;;;;5153263;27;20047;-64
2021/12/21 01:07:23;;;;;;;0.57;0.35;;;22.00;30.00;;;;;;5154444;27;20110;-64
2021/12/21 01:10:16;;;;;;;1.10;0.32;;;21.90;30.00;;;;;;5152868;27;20039;-64
2021/12/21 01:15:45;;;;;;;0.35;0.32;;;21.90;30.00;;;;;;5152895;27;20479;-64
2021/12/21 01:18:21;;;;;;;0.55;0.50;;;21.90;30.00;;;;;;5153497;27;20107;-64
2021/12/21 01:21:01;;;;;;;0.65;0.38;;;21.90;30.00;;;;;;5153150;27;20046;-65
2021/12/21 01:23:51;;;;;;;0.70;0.47;;;21.90;30.00;;;;;;5153254;27;20050;-64
2021/12/21 01:26:30;;;;;;;0.30;0.30;;;21.90;30.00;;;;;;5153122;27;20419;-64
2021/12/21 01:29:14;;;;;;;0.45;0.35;;;21.90;30.10;;;;;;5153313;27;20099;-65
2021/12/21 01:31:53;;;;;;;0.35;0.35;;;22.00;30.00;;;;;;5134631;27;20134;-64
2021/12/21 01:34:42;;;;;;;0.28;0.28;;;21.90;30.00;;;;;;5135705;27;20050;-64
2021/12/21 01:37:19;;;;;;;0.95;0.45;;;21.90;30.00;;;;;;5153223;27;20047;-64
2021/12/21 01:42:50;;;;;;;0.50;0.30;;;22.00;30.00;;;;;;5153070;27;20042;-64
2021/12/21 01:50:58;;;;;;;0.73;0.40;;;21.90;29.80;;;;;;5152312;27;20071;-64
2021/12/21 01:53:25;;;;;;;0.50;0.50;;;21.90;29.80;;;;;;5147734;27;20036;-64
2021/12/21 01:55:52;;;;;;;0.40;0.40;;;21.90;29.90;;;;;;5118499;27;20117;-66
2021/12/21 01:58:20;;;;;;;0.20;0.20;;;21.90;29.90;;;;;;5132305;27;20051;-64
2021/12/21 02:00:48;;;;;;;0.52;0.40;;;21.90;29.80;;;;;;5130904;27;20089;-64
2021/12/21 02:03:16;;;;;;;0.20;0.20;;;21.90;29.80;;;;;;5131740;27;20077;-64
2021/12/21 02:05:44;;;;;;;0.40;0.30;;;21.90;29.80;;;;;;5130934;27;20043;-64
2021/12/21 02:08:11;;;;;;;0.40;0.40;;;21.90;29.80;;;;;;5132310;27;20141;-64
2021/12/21 02:10:39;;;;;;;0.30;0.30;;;21.90;29.80;;;;;;5130831;27;20079;-64
2021/12/21 02:13:07;;;;;;;0.40;0.40;;;21.90;29.80;;;;;;5131168;27;20557;-65
2021/12/21 02:15:34;;;;;;;0.30;0.30;;;21.90;29.80;;;;;;5130369;27;20043;-64
2021/12/21 02:18:31;;;;;;;0.60;0.30;;;21.90;29.80;;;;;;5132459;27;20457;-65
2021/12/21 02:20:57;;;;;;;0.38;0.38;;;21.80;29.80;;;;;;5130784;27;20051;-64
2021/12/21 02:23:37;;;;;;;0.20;0.20;;;21.80;29.80;;;;;;5113671;27;20075;-64
2021/12/21 02:26:21;;;;;;;0.50;0.45;;;21.90;29.90;;;;;;5130978;27;20051;-64
2021/12/21 02:31:38;;;;;;;0.20;0.20;;;21.80;29.90;;;;;;5130740;27;20051;-64
2021/12/21 02:34:05;;;;;;;0.10;0.10;;;21.80;29.90;;;;;;5131127;27;20043;-65
2021/12/21 02:40:10;;;;;;;0.22;0.22;;;21.80;29.90;;;;;;5151409;27;20047;-64
2021/12/21 02:42:37;;;;;;;0.50;0.50;;;21.80;29.90;;;;;;5151855;27;20552;-64
2021/12/21 02:45:06;;;;;;;0.75;0.45;;;21.80;29.90;;;;;;5151016;27;20138;-64
2021/12/21 02:47:33;;;;;;;1.00;0.73;;;21.80;29.90;;;;;;5152590;27;20099;-64
2021/12/21 02:50:01;;;;;;;0.30;0.30;;;21.80;29.90;;;;;;5151115;27;20047;-64
2021/12/21 02:52:28;;;;;;;0.22;0.20;;;21.80;29.90;;;;;;5133570;27;20054;-64
2021/12/21 02:54:55;;;;;;;0.43;0.40;;;21.80;29.90;;;;;;5149979;27;20043;-64
2021/12/21 02:57:22;;;;;;;0.57;0.40;;;21.80;29.90;;;;;;5152252;27;20042;-64
2021/12/21 02:59:49;;;;;;;0.57;0.43;;;21.80;30.00;;;;;;5151289;27;20107;-64
2021/12/21 03:02:18;;;;;;;0.20;0.20;;;21.80;30.00;;;;;;5151199;27;20487;-64
2021/12/21 03:04:46;;;;;;;1.45;0.43;;;21.80;30.00;;;;;;5151235;27;20118;-64
2021/12/21 03:10:08;;;;;;;0.20;0.20;;;21.80;30.00;;;;;;5135794;27;20051;-64
2021/12/21 03:13:53;;;;;;;0.38;0.32;;;21.80;30.00;;;;;;5151568;27;20452;-64
2021/12/21 03:15:27;;;;;;;0.20;0.20;;;21.80;30.00;;;;;;5149892;27;20047;-64
2021/12/21 03:17:56;;;;;;;0.20;0.20;;;21.80;30.00;;;;;;5152025;27;20074;-64
2021/12/21 03:20:24;;;;;;;0.35;0.35;;;21.80;30.00;;;;;;5132286;27;20091;-64
2021/12/21 03:22:52;;;;;;;0.38;0.38;;;21.80;30.00;;;;;;5151952;27;20076;-64
2021/12/21 03:25:19;;;;;;;0.20;0.20;;;21.80;30.00;;;;;;5149851;27;20085;-65
2021/12/21 03:27:47;;;;;;;0.55;0.25;;;21.80;30.00;;;;;;5151464;27;20078;-64
2021/12/21 03:30:16;;;;;;;0.40;0.40;;;21.80;30.00;;;;;;5150691;27;20099;-65
2021/12/21 03:32:43;;;;;;;0.57;0.30;;;21.80;30.00;;;;;;5150428;27;20099;-64
2021/12/21 03:35:11;;;;;;;0.30;0.30;;;21.80;30.00;;;;;;5150420;27;20200;-64
2021/12/21 03:37:38;;;;;;;1.10;0.40;;;21.80;30.00;;;;;;5150752;27;20046;-64
2021/12/21 03:40:07;;;;;;;0.40;0.40;;;21.80;30.00;;;;;;5150443;27;20050;-64
2021/12/21 03:42:34;;;;;;;0.30;0.30;;;21.80;30.00;;;;;;5150313;27;20072;-64
2021/12/21 03:45:03;;;;;;;0.25;0.20;;;21.80;30.00;;;;;;5149494;27;20095;-64
2021/12/21 03:47:31;;;;;;;1.80;0.20;;;21.80;30.00;;;;;;5150094;27;20050;-64
2021/12/21 03:50:01;;;;;;;0.20;0.20;;;21.80;30.00;;;;;;5149640;27;20431;-64
2021/12/21 03:52:29;;;;;;;0.30;0.30;;;21.80;30.00;;;;;;5150411;27;20076;-64
2021/12/21 03:55:00;;;;;;;0.43;0.30;;;21.80;30.00;;;;;;5150155;27;20042;-64
2021/12/21 03:57:28;;;;;;;0.30;0.30;;;21.80;30.00;;;;;;5150233;27;20647;-64
2021/12/21 03:59:57;;;;;;;0.15;0.15;;;21.80;30.00;;;;;;5149815;27;20089;-64
2021/12/21 04:02:26;;;;;;;1.03;0.50;;;21.80;30.00;;;;;;5149769;27;20085;-64
2021/12/21 04:04:56;;;;;;;0.70;0.40;;;21.80;30.00;;;;;;5149584;27;20126;-64
2021/12/21 04:07:23;;;;;;;0.15;0.15;;;21.80;30.00;;;;;;5149891;27;20103;-64
2021/12/21 04:09:51;;;;;;;0.15;0.15;;;21.80;30.00;;;;;;5150063;27;20042;-64
2021/12/21 04:12:18;;;;;;;0.30;0.20;;;21.80;30.00;;;;;;5149570;27;20047;-64
2021/12/21 04:14:47;;;;;;;0.30;0.30;;;21.70;30.40;;;;;;5131147;27;20081;-64
2021/12/21 04:17:22;;;;;;;0.30;0.30;;;21.70;30.00;;;;;;5149951;27;20551;-65
2021/12/21 04:19:50;;;;;;;0.20;0.20;;;21.70;30.00;;;;;;5149708;27;20108;-64
2021/12/21 04:22:19;;;;;;;0.20;0.20;;;21.80;30.00;;;;;;5149867;27;20093;-64
2021/12/21 04:24:47;;;;;;;0.10;0.10;;;21.80;30.00;;;;;;5149224;27;20099;-64
2021/12/21 04:27:15;;;;;;;0.30;0.30;;;21.70;30.00;;;;;;5149026;27;20515;-64
2021/12/21 04:29:44;;;;;;;0.20;0.20;;;21.70;30.00;;;;;;5150289;27;20039;-64
2021/12/21 04:32:12;;;;;;;0.10;0.10;;;21.70;30.00;;;;;;5149667;27;20047;-64
2021/12/21 04:34:39;;;;;;;0.65;0.30;;;21.70;30.00;;;;;;5149366;27;20099;-64
2021/12/21 04:37:08;;;;;;;0.50;0.50;;;21.70;30.00;;;;;;5149258;27;20531;-64
2021/12/21 04:39:46;;;;;;;0.30;0.30;;;21.70;30.00;;;;;;5138097;27;20043;-64
2021/12/21 04:42:14;;;;;;;0.20;0.20;;;21.70;30.00;;;;;;5108816;28;20134;-64
2021/12/21 04:44:41;;;;;;;0.35;0.20;;;21.70;30.00;;;;;;5110749;28;20081;-64
2021/12/21 04:47:08;;;;;;;0.20;0.20;;;21.70;30.00;;;;;;5132813;27;20071;-64
2021/12/21 04:49:35;;;;;;;0.15;0.15;;;21.70;30.00;;;;;;5129559;27;20094;-64
2021/12/21 04:52:15;;;;;;;0.20;0.20;;;21.70;30.00;;;;;;5128161;28;20511;-64
2021/12/21 04:54:42;;;;;;;0.30;0.30;;;21.70;30.00;;;;;;5128223;28;20101;-64
2021/12/21 04:57:09;;;;;;;0.65;0.30;;;21.70;30.00;;;;;;5128925;28;20073;-64
2021/12/21 04:59:37;;;;;;;0.22;0.20;;;21.70;30.00;;;;;;5128528;28;20047;-64
2021/12/21 05:02:04;;;;;;;0.20;0.20;;;21.70;30.00;;;;;;5128260;28;20043;-64
2021/12/21 05:04:31;;;;;;;0.20;0.20;;;21.70;30.00;;;;;;5123663;27;20158;-65
2021/12/21 05:06:59;;;;;;;0.15;0.13;;;21.70;30.00;;;;;;5110607;28;20093;-64
2021/12/21 05:09:29;;;;;;;0.30;0.20;;;21.70;30.00;;;;;;5118958;28;20096;-64
2021/12/21 05:12:02;;;;;;;0.50;0.40;;;21.70;30.00;;;;;;5126710;27;20047;-64
2021/12/21 05:14:29;;;;;;;0.20;0.20;;;21.70;30.30;;;;;;5116423;28;20699;-65
2021/12/21 05:16:56;;;;;;;0.13;0.10;;;21.70;30.00;;;;;;5118188;28;20518;-64
2021/12/21 05:19:23;;;;;;;0.30;0.20;;;21.70;30.00;;;;;;5128839;28;20215;-68
2021/12/21 05:21:51;;;;;;;0.20;0.20;;;21.70;30.00;;;;;;5128489;28;20075;-64
2021/12/21 05:24:18;;;;;;;0.30;0.20;;;21.70;30.00;;;;;;5128110;28;20067;-64
2021/12/21 05:28:02;;;;;;;0.22;0.17;;;21.70;30.00;;;;;;5125929;28;20071;-64
2021/12/21 05:30:29;;;;;;;0.32;0.20;;;21.70;30.00;;;;;;5121204;27;20055;-64
2021/12/21 05:32:57;;;;;;;0.20;0.20;;;21.70;30.00;;;;;;5111553;27;20040;-64
2021/12/21 05:35:26;;;;;;;0.80;0.15;;;21.70;30.00;;;;;;5125579;27;20495;-64
2021/12/21 05:37:58;;;;;;;0.45;0.45;;;21.70;30.00;;;;;;5132337;27;20047;-64
2021/12/21 05:40:36;;;;;;;0.30;0.22;;;21.70;30.00;;;;;;5130458;27;20057;-64
2021/12/21 05:43:05;;;;;;;0.45;0.38;;;21.70;30.00;;;;;;5129785;27;20869;-64
2021/12/21 05:45:33;;;;;;;0.20;0.20;;;21.70;30.10;;;;;;5130553;27;20035;-65
2021/12/21 05:48:00;;;;;;;0.35;0.20;;;21.70;30.00;;;;;;5132466;27;20120;-64
2021/12/21 05:50:28;;;;;;;0.47;0.30;;;21.70;30.00;;;;;;5148515;27;21480;-65
2021/12/21 05:52:55;;;;;;;0.22;0.20;;;21.70;30.00;;;;;;5123125;27;20069;-64
2021/12/21 05:55:23;;;;;;;0.55;0.22;;;21.70;30.10;;;;;;5141816;27;20043;-65
2021/12/21 05:57:50;;;;;;;0.52;0.32;;;21.70;30.00;;;;;;5150050;27;20051;-64
2021/12/21 06:00:21;;;;;;;0.43;0.30;;;21.70;30.00;;;;;;5112336;27;20086;-64
2021/12/21 06:02:49;;;;;;;0.30;0.28;;;21.70;30.10;;;;;;5129781;27;20096;-64
2021/12/21 06:05:17;;;;;;;2.15;0.30;;;21.70;30.10;;;;;;5110654;28;20123;-64
2021/12/21 06:07:45;;;;;;;0.30;0.30;;;21.70;30.00;;;;;;5138819;27;20107;-64
2021/12/21 06:10:18;;;;;;;0.63;0.25;;;21.70;29.90;;;;;;5136994;27;20112;-64
2021/12/21 06:13:23;;;;;;;0.40;0.20;;;21.70;29.80;;;;;;5126729;27;20067;-66
2021/12/21 06:15:57;;;;;;;0.38;0.30;;;21.60;29.70;;;;;;5123460;27;20055;-66
2021/12/21 06:24:50;;;;;;;0.35;0.35;;;21.60;29.50;;;;;;5121542;27;20509;-65
2021/12/21 06:26:44;;;;;;;0.63;0.40;;;21.60;29.50;;;;;;5128858;27;20051;-65
2021/12/21 06:29:11;;;;;;;0.75;0.52;;;21.60;29.50;;;;;;5128207;27;20052;-65
2021/12/21 06:32:20;;;;;;;0.50;0.50;;;21.60;29.50;;;;;;5121583;27;20097;-67
2021/12/21 06:34:47;;;;;;;0.70;0.70;;;21.50;29.50;;;;;;5125032;27;20043;-66
2021/12/21 06:37:15;;;;;;;0.85;0.60;;;21.50;29.60;;;;;;5123609;27;20484;-66
2021/12/21 06:39:42;;;;;;;1.15;0.70;;;21.50;29.70;;;;;;5119797;27;20043;-70
2021/12/21 06:42:10;;;;;;;0.98;0.98;;;21.60;29.90;;;;;;5109296;27;20122;-67
2021/12/21 06:44:42;;;;;;;0.80;0.80;;;21.60;30.00;;;;;;5120263;27;20047;-69
2021/12/21 06:52:45;;;;;;;1.75;0.93;;;21.70;29.80;;;;;;5124700;27;20454;-68
2021/12/21 06:55:13;;;;;;;0.93;0.82;;;21.70;29.70;;;;;;5124748;27;20046;-69
2021/12/21 06:57:43;;;;;;;1.00;0.90;;;21.80;29.60;;;;;;5109803;27;20047;-67
2021/12/21 07:00:16;;;;;;;0.98;0.98;;;21.80;29.60;;;;;;5128650;27;20407;-66
2021/12/21 07:02:43;;;;;;;2.13;0.77;;;21.90;29.50;;;;;;5125206;27;20112;-66
2021/12/21 07:05:11;;;;;;;1.40;0.88;;;21.90;29.40;;;;;;5121860;27;20476;-66
2021/12/21 07:07:38;;;;;;;0.95;0.90;;;22.00;29.30;;;;;;5127069;27;20100;-68
2021/12/21 07:10:09;;;;;;;2.90;0.82;;;22.00;29.20;;;;;;5128143;27;20127;-65
2021/12/21 07:18:29;;;;;;;1.33;0.90;;;22.20;29.80;;;;;;5114460;27;20047;-70
2021/12/21 07:20:57;;;;;;;3.50;1.40;;;22.30;29.90;;;;;;5130855;27;20100;-71
2021/12/21 07:23:25;;;;;;;1.52;1.20;;;22.40;29.80;;;;;;5127430;27;20047;-72
2021/12/21 07:25:53;;;;;;;1.50;1.40;;;22.40;29.80;;;;;;5127833;27;20047;-73
2021/12/21 07:28:21;;;;;;;1.55;1.40;;;22.50;29.80;;;;;;5120580;27;20090;-70
2021/12/21 07:30:48;;;;;;;1.88;1.77;;;22.50;29.80;;;;;;5118939;27;20104;-76
2021/12/21 07:33:16;;;;;;;1.98;1.63;;;22.60;29.80;;;;;;5105754;27;20051;-66
2021/12/21 07:35:44;;;;;;;3.05;2.03;;;22.70;29.80;;;;;;5121565;27;20051;-63
2021/12/21 07:38:11;;;;;;;3.03;2.10;;;22.70;30.20;;;;;;5122603;27;20078;-65
2021/12/21 07:40:40;;;;;;;2.88;2.40;;;22.80;30.20;;;;;;5120872;27;20083;-69
2021/12/21 07:43:07;;;;;;;6.07;2.20;;;22.80;30.50;;;;;;5123158;27;20086;-68
2021/12/21 07:45:34;;;;;;;5.72;3.33;;;22.80;30.10;;;;;;5124697;27;20376;-71
2021/12/21 07:48:02;;;;;;;5.95;3.05;;;22.80;30.00;;;;;;5120878;27;20039;-71
2021/12/21 07:50:29;;;;;;;3.75;3.20;;;22.90;29.80;;;;;;5118421;27;20046;-68
2021/12/21 07:53:00;;;;;;;7.13;3.80;;;22.90;29.60;;;;;;5126830;27;20100;-68
2021/12/21 07:55:27;;;;;;;5.78;4.07;;;22.90;29.60;;;;;;5122254;27;20062;-66
2021/12/21 07:57:54;;;;;;;4.75;3.42;;;23.00;29.50;;;;;;5123513;27;20047;-66
2021/12/21 08:00:22;;;;;;;5.25;3.75;;;23.00;29.40;;;;;;5105512;27;20055;-67
2021/12/21 08:06:03;;;;;;;6.28;4.07;;;23.00;29.30;;;;;;5120273;27;20670;-68
2021/12/21 08:08:31;;;;;;;7.07;4.68;;;23.10;29.20;;;;;;5127886;27;20085;-67
2021/12/21 08:11:17;;;;;;;5.45;3.83;;;23.10;29.10;;;;;;5104892;27;20097;-67
2021/12/21 08:26:14;;;;;;;3.85;3.30;;;23.30;28.90;;;;;;5128850;27;20046;-67
2021/12/21 08:28:41;;;;;;;7.32;3.83;;;23.40;28.90;;;;;;5108545;28;20100;-69
2021/12/21 08:31:12;;;;;;;5.07;3.22;;;23.40;28.80;;;;;;5117654;27;20093;-68
2021/12/21 08:33:42;;;;;;;3.95;3.15;;;23.50;28.70;;;;;;5127163;27;20062;-67
2021/12/21 08:36:10;;;;;;;4.72;2.92;;;23.50;28.60;;;;;;5128574;28;20047;-66
2021/12/21 08:38:42;;;;;;;4.68;3.20;;;23.50;28.70;;;;;;5129422;28;20047;-67
2021/12/21 08:41:09;;;;;;;3.88;3.08;;;23.50;28.50;;;;;;5129078;27;20034;-66
2021/12/21 08:43:37;;;;;;;4.07;3.53;;;23.60;28.60;;;;;;5130149;27;20055;-65
2021/12/21 08:46:07;;;;;;;4.40;3.38;;;23.60;28.80;;;;;;5129604;28;20043;-67
2021/12/21 08:48:35;;;;;;;5.00;2.80;;;23.60;28.40;;;;;;5129530;28;20096;-68
2021/12/21 08:51:04;;;;;;;6.20;3.22;;;23.60;28.30;;;;;;5129906;28;20055;-68
2021/12/21 08:53:32;;;;;;;3.50;2.75;;;23.70;28.30;;;;;;5106173;28;20100;-68
2021/12/21 08:55:59;;;;;;;3.70;2.53;;;23.70;28.20;;;;;;5127304;27;20042;-69
2021/12/21 08:58:27;;;;;;;3.67;2.50;;;23.70;28.10;;;;;;5123311;27;20137;-68
2021/12/21 09:00:54;;;;;;;4.43;3.15;;;23.80;28.10;;;;;;5122666;27;20108;-69
2021/12/21 09:03:23;;;;;;;3.75;2.63;;;23.80;28.00;;;;;;5121410;27;20035;-69
2021/12/21 09:05:52;;;;;;;3.90;2.47;;;23.80;28.00;;;;;;5119644;27;20043;-69
2021/12/21 09:08:20;;;;;;;4.18;2.78;;;23.80;27.90;;;;;;5130134;27;20043;-69
2021/12/21 09:10:47;;;;;;;3.65;2.42;;;23.80;27.80;;;;;;5131873;27;20043;-68
2021/12/21 09:13:15;;;;;;;2.92;2.50;;;23.80;27.80;;;;;;5133114;27;20047;-69
2021/12/21 09:15:44;;;;;;;2.42;2.10;;;23.80;27.70;;;;;;5134026;27;20052;-69
2021/12/21 09:18:12;;;;;;;2.90;1.98;;;23.80;27.70;;;;;;5130091;27;20644;-69
2021/12/21 09:20:39;;;;;;;2.83;2.25;;;23.90;27.60;;;;;;5129200;27;20039;-67
2021/12/21 09:23:06;;;;;;;2.83;1.80;;;23.90;27.60;;;;;;5130010;27;20081;-65
2021/12/21 09:25:34;;;;;;;1.85;1.73;;;23.90;27.50;;;;;;5128174;27;20606;-67
2021/12/21 09:28:02;;;;;;;3.80;2.13;;;23.90;27.40;;;;;;5129165;27;20130;-68
2021/12/21 09:30:29;;;;;;;3.15;1.55;;;23.80;27.40;;;;;;5130975;27;20070;-68
2021/12/21 09:32:58;;;;;;;1.75;1.55;;;23.80;27.30;;;;;;5132751;27;20118;-63
2021/12/21 09:35:26;;;;;;;1.90;1.50;;;23.90;27.30;;;;;;5129473;27;20075;-65
2021/12/21 09:37:54;;;;;;;2.45;1.80;;;23.90;27.30;;;;;;5131681;27;20531;-65
2021/12/21 09:40:28;;;;;;;3.80;2.08;;;23.90;27.20;;;;;;5127626;27;20061;-66
2021/12/21 09:42:57;;;;;;;1.50;1.40;;;23.90;27.30;;;;;;5128917;27;20039;-68
2021/12/21 09:45:25;;;;;;;1.63;1.38;;;23.90;27.20;;;;;;5110058;27;20047;-68
2021/12/21 09:47:52;;;;;;;1.73;1.63;;;23.90;27.20;;;;;;5126020;27;20141;-68
2021/12/21 09:50:21;;;;;;;1.95;1.80;;;23.90;27.20;;;;;;5126609;27;20043;-68
2021/12/21 09:52:49;;;;;;;2.40;1.88;;;23.90;27.10;;;;;;5125546;27;20127;-67
2021/12/21 09:55:18;;;;;;;2.65;2.15;;;23.90;27.10;;;;;;5128142;27;20039;-68
2021/12/21 09:57:48;;;;;;;1.83;1.40;;;24.00;27.10;;;;;;5125928;27;20081;-67
2021/12/21 10:00:21;;;;;;;1.60;1.50;;;24.00;27.10;;;;;;5127462;27;20112;-69
2021/12/21 10:02:49;;;;;;;1.60;1.30;;;24.00;27.00;;;;;;5129991;27;20043;-68
2021/12/21 10:05:22;;;;;;;1.25;1.15;;;24.00;27.00;;;;;;5121072;27;20043;-69
2021/12/21 10:07:59;;;;;;;1.38;1.27;;;24.10;26.90;;;;;;5126248;27;20078;-69
2021/12/21 10:10:32;;;;;;;2.78;1.60;;;24.10;26.90;;;;;;5126371;27;20051;-68
2021/12/21 10:13:07;;;;;;;3.30;1.55;;;24.10;26.90;;;;;;5129647;27;20043;-69
2021/12/21 10:15:40;;;;;;;1.63;1.52;;;24.10;26.80;;;;;;5131752;27;20047;-68
2021/12/21 10:18:08;;;;;;;1.85;1.33;;;24.20;26.80;;;;;;5128837;27;20544;-68
2021/12/21 10:20:40;;;;;;;1.70;1.52;;;24.20;26.70;;;;;;5118227;27;20129;-68
2021/12/21 10:23:14;;;;;;;1.40;1.30;;;24.20;26.70;;;;;;5125879;27;20043;-72
2021/12/21 10:25:52;;;;;;;1.30;0.90;;;24.30;26.70;;;;;;5131974;27;20162;-68
2021/12/21 10:28:33;;;;;;;1.75;1.30;;;24.30;26.70;;;;;;5132652;27;20050;-67
2021/12/21 10:31:05;;;;;;;1.27;1.17;;;24.30;26.60;;;;;;5126378;27;20072;-67
2021/12/21 10:33:33;;;;;;;1.42;1.35;;;24.30;26.60;;;;;;5124834;27;20054;-66
2021/12/21 10:36:04;;;;;;;1.80;1.20;;;24.30;26.60;;;;;;5123923;27;20128;-63
2021/12/21 10:38:47;;;;;;;4.03;1.52;;;24.40;26.60;;;;;;5126307;27;20070;-69
2021/12/21 10:41:33;;;;;;;1.52;0.90;;;24.40;26.80;;;;;;5123456;27;20042;-72
2021/12/21 10:44:08;;;;;;;1.33;0.88;;;24.40;27.00;;;;;;5093232;28;20079;-73
2021/12/21 10:46:39;;;;;;;1.52;1.15;;;24.50;27.40;;;;;;5117402;27;20454;-69
2021/12/21 10:49:28;;;;;;;1.70;1.00;;;24.50;27.50;;;;;;5116754;27;20038;-72
2021/12/21 10:55:40;;;;;;;1.40;0.93;;;24.60;27.60;;;;;;5127217;27;20039;-71
2021/12/21 10:58:16;;;;;;;1.23;1.02;;;24.70;27.60;;;;;;5126384;27;20043;-68
2021/12/21 11:00:56;;;;;;;1.17;1.00;;;24.70;27.70;;;;;;5122346;27;20053;-69
2021/12/21 11:03:37;;;;;;;;;;;24.70;27.60;;;;;;5111863;27;20104;-72
2021/12/21 11:06:29;;;;;;;1.20;1.10;;;24.80;27.60;;;;;;5130900;27;19930;-73
2021/12/21 11:08:57;;;;;;;1.98;0.90;;;24.80;27.60;;;;;;5130993;27;20082;-70
2021/12/21 11:11:34;;;;;;;2.00;1.15;;;24.80;27.70;;;;;;5125639;27;20066;-68
2021/12/21 11:14:08;;;;;;;1.40;1.10;;;24.90;27.70;;;;;;5131630;27;20096;-70
2021/12/21 11:16:42;;;;;;;1.17;1.08;;;24.80;27.60;;;;;;5130374;27;20126;-69
2021/12/21 11:19:12;;;;;;;1.67;1.00;;;24.90;27.60;;;;;;5131617;27;20051;-70
2021/12/21 11:21:40;;;;;;;3.40;1.00;;;24.80;27.50;;;;;;5147549;27;20042;-71
2021/12/21 11:24:14;;;;;;;1.35;1.25;;;24.80;27.40;;;;;;5131234;27;20492;-69
2021/12/21 11:26:44;;;;;;;0.90;0.90;;;24.80;27.30;;;;;;5131274;27;20043;-70
2021/12/21 11:29:17;;;;;;;1.60;0.90;;;24.80;27.10;;;;;;5130605;27;20108;-69
2021/12/21 11:31:48;;;;;;;1.30;1.08;;;24.80;27.00;;;;;;5134069;27;20038;-70
2021/12/21 11:34:20;;;;;;;0.88;0.88;;;24.70;26.80;;;;;;5133537;27;20130;-67
2021/12/21 11:39:39;;;;;;;1.00;1.00;;;24.70;26.70;;;;;;5150677;27;20453;-68
2021/12/21 11:42:09;;;;;;;1.23;1.00;;;24.70;26.60;;;;;;5144424;27;20039;-67
2021/12/21 11:44:58;;;;;;;0.93;0.93;;;24.70;26.60;;;;;;5130762;27;20043;-70
2021/12/21 11:47:32;;;;;;;1.67;1.30;;;24.70;26.50;;;;;;5131330;27;20047;-70
2021/12/21 11:50:04;;;;;;;1.85;1.27;;;24.70;26.30;;;;;;5130818;27;20496;-70
2021/12/21 11:52:43;;;;;;;1.35;1.10;;;24.70;26.30;;;;;;5128114;27;20043;-68
2021/12/21 11:55:11;;;;;;;1.30;1.13;;;24.70;26.20;;;;;;5125493;27;20047;-69
2021/12/21 11:57:43;;;;;;;1.77;1.30;;;24.70;26.10;;;;;;5124975;27;20054;-70
2021/12/21 12:00:17;;;;;;;1.73;1.30;;;24.70;25.90;;;;;;5124444;27;20039;-66
2021/12/21 12:02:45;;;;;;;1.50;1.20;;;24.70;26.10;;;;;;5123227;27;20047;-68
2021/12/21 12:05:24;;;;;;;3.92;1.40;;;24.70;26.30;;;;;;5121294;27;20035;-67
2021/12/21 12:08:07;;;;;;;1.20;1.10;;;24.70;26.40;;;;;;5119838;27;20096;-67
2021/12/21 12:10:39;;;;;;;1.48;1.38;;;24.70;26.70;;;;;;5098132;27;20100;-67
2021/12/21 12:13:13;;;;;;;1.63;1.20;;;24.70;26.80;;;;;;5115991;27;20219;-63
2021/12/21 12:15:53;;;;;;;1.30;1.10;;;24.70;27.20;;;;;;5125537;27;20058;-63
2021/12/21 12:18:27;;;;;;;0.75;0.75;;;24.70;27.70;;;;;;5125157;27;20042;-65
2021/12/21 12:20:56;;;;;;;1.60;1.20;;;24.70;28.20;;;;;;5119313;27;20170;-69
2021/12/21 12:23:24;;;;;;;6.95;1.15;;;24.80;28.30;;;;;;5124693;27;20047;-64
2021/12/21 12:25:56;;;;;;;2.53;1.20;;;24.70;28.50;;;;;;5109937;27;20702;-68
2021/12/21 12:28:26;;;;;;;4.82;1.00;;;24.80;28.30;;;;;;5122265;27;20092;-69
2021/12/21 12:30:54;;;;;;;1.80;1.33;;;24.80;28.20;;;;;;5105253;27;20075;-67
2021/12/21 12:33:22;;;;;;;1.10;1.00;;;24.80;28.20;;;;;;5124204;27;20484;-72
2021/12/21 12:35:49;;;;;;;2.28;0.82;;;24.80;28.20;;;;;;5120893;27;20475;-68
2021/12/21 12:38:20;;;;;;;3.03;0.98;;;24.80;28.20;;;;;;5124321;27;20458;-67
2021/12/21 12:40:57;;;;;;;1.98;1.08;;;24.80;28.20;;;;;;5125009;27;20047;-66
2021/12/21 12:43:27;;;;;;;1.13;1.00;;;24.80;28.40;;;;;;5132049;27;20097;-66
2021/12/21 12:46:04;;;;;;;0.95;0.77;;;24.80;28.40;;;;;;5127453;27;20043;-64
2021/12/21 12:48:47;;;;;;;3.65;0.90;;;24.80;28.10;;;;;;5130830;27;20043;-65
2021/12/21 12:51:30;;;;;;;0.98;0.80;;;24.70;27.90;;;;;;5125234;27;20057;-65
2021/12/21 12:53:58;;;;;;;1.65;1.35;;;24.70;27.90;;;;;;5135080;27;20043;-64
2021/12/21 12:56:26;;;;;;;1.15;0.90;;;24.70;27.90;;;;;;5133429;27;20078;-62
2021/12/21 12:59:02;;;;;;;0.70;0.70;;;24.70;28.00;;;;;;5127194;27;20113;-66
2021/12/21 13:01:32;;;;;;;1.25;1.15;;;24.70;28.00;;;;;;5131780;27;20070;-65
2021/12/21 13:04:09;;;;;;;1.83;1.47;;;24.70;27.90;;;;;;5130660;27;20054;-68
2021/12/21 13:06:39;;;;;;;1.02;0.80;;;24.60;27.80;;;;;;5130761;27;20067;-68
2021/12/21 13:09:14;;;;;;;0.80;0.80;;;24.60;27.80;;;;;;5129663;27;20039;-68
2021/12/21 13:11:42;;;;;;;2.38;1.10;;;24.60;28.10;;;;;;5129071;27;20047;-66
2021/12/21 13:14:14;;;;;;;2.35;0.98;;;24.60;27.50;;;;;;5130987;27;20141;-70
2021/12/21 13:16:43;;;;;;;1.30;1.08;;;24.60;27.40;;;;;;5131172;27;20047;-69
2021/12/21 13:19:13;;;;;;;1.30;1.20;;;24.60;27.30;;;;;;5135312;27;20051;-67
2021/12/21 13:22:01;;;;;;;;;;;24.50;27.30;;;;;;5071418;28;20110;-68
2021/12/21 13:24:33;;;;;;;3.47;1.25;;;24.50;27.30;;;;;;5073149;28;19920;-68
2021/12/21 13:27:08;;;;;;;1.65;1.15;;;24.50;27.30;;;;;;5069095;28;20139;-68
2021/12/21 13:29:36;;;;;;;0.85;0.85;;;24.40;27.30;;;;;;5064735;28;20080;-65
2021/12/21 13:32:11;;;;;;;1.30;1.20;;;24.50;27.50;;;;;;5066586;28;20408;-66
2021/12/21 13:34:39;;;;;;;;;;;24.40;27.50;;;;;;5069462;28;20579;-65
2021/12/21 13:37:09;;;;;;;1.20;1.10;;;24.40;27.60;;;;;;5060985;28;19979;-66
2021/12/21 13:39:38;;;;;;;;;;;24.40;27.50;;;;;;5084216;27;20464;-64
2021/12/21 13:42:11;;;;;;;2.33;1.23;;;24.30;27.40;;;;;;5132209;27;19927;-64
2021/12/21 13:44:41;;;;;;;1.15;0.90;;;24.30;27.40;;;;;;5130669;27;20049;-66
2021/12/21 13:47:30;;;;;;;2.95;1.00;;;24.30;27.40;;;;;;5129673;27;20595;-66
2021/12/21 13:50:15;;;;;;;1.80;1.27;;;24.30;27.30;;;;;;5122131;27;20500;-65
2021/12/21 13:52:51;;;;;;;3.17;1.35;;;24.30;27.30;;;;;;5129125;27;20441;-66
2021/12/21 13:55:25;;;;;;;3.05;1.20;;;24.30;27.20;;;;;;5124410;27;20110;-67
2021/12/21 13:57:55;;;;;;;2.83;1.40;;;24.30;27.30;;;;;;5123954;27;20093;-67
2021/12/21 14:00:27;;;;;;;0.93;0.90;;;24.30;27.20;;;;;;5126236;27;20080;-67
2021/12/21 14:03:05;;;;;;;1.80;1.00;;;24.20;27.00;;;;;;5110639;27;20047;-67
2021/12/21 14:05:44;;;;;;;2.72;1.38;;;24.20;26.90;;;;;;5121818;27;20047;-67
2021/12/21 14:08:18;;;;;;;3.13;1.50;;;24.20;26.70;;;;;;5118926;27;20104;-66
2021/12/21 14:10:51;;;;;;;1.00;0.85;;;24.20;26.70;;;;;;5128443;27;20043;-68